createdAt,value
2017-06-22T00:00:33.851Z,4.63
2017-06-22T00:03:01.507Z,4.67
2017-06-22T00:05:29.071Z,5.30
2017-06-22T00:07:56.634Z,4.50
2017-06-22T00:10:24.177Z,5.63
2017-06-22T00:12:51.706Z,4.80
2017-06-22T00:15:20.012Z,5.57
2017-06-22T00:17:47.578Z,5.73
2017-06-22T00:20:15.159Z,5.80
2017-06-22T00:22:42.687Z,5.97
2017-06-22T00:25:10.279Z,6.10
2017-06-22T00:27:37.857Z,5.40
2017-06-22T00:30:05.394Z,6.07
2017-06-22T00:32:32.957Z,5.50
2017-06-22T00:35:00.483Z,5.53
2017-06-22T00:37:28.046Z,5.67
2017-06-22T00:40:02.202Z,4.93
2017-06-22T00:42:29.760Z,4.97
2017-06-22T00:44:57.318Z,4.90
2017-06-22T00:47:24.876Z,4.97
2017-06-22T00:49:52.465Z,4.60
2017-06-22T00:52:20.102Z,4.80
2017-06-22T00:54:47.759Z,4.80
2017-06-22T00:57:15.345Z,4.73
2017-06-22T00:59:42.983Z,4.57
2017-06-22T01:02:10.615Z,4.77
2017-06-22T01:04:38.214Z,3.80
2017-06-22T01:07:05.774Z,4.67
2017-06-22T01:09:33.330Z,4.40
2017-06-22T01:12:00.865Z,4.57
2017-06-22T01:14:28.459Z,5.00
2017-06-22T01:16:55.991Z,4.20
2017-06-22T01:19:23.575Z,4.87
2017-06-22T01:21:51.143Z,4.70
2017-06-22T01:24:18.675Z,4.20
2017-06-22T01:26:46.262Z,4.17
2017-06-22T01:29:28.539Z,5.10
2017-06-22T01:31:56.130Z,4.73
2017-06-22T01:34:23.691Z,5.50
2017-06-22T01:36:51.254Z,4.50
2017-06-22T01:39:18.818Z,5.07
2017-06-22T01:41:46.366Z,4.83
2017-06-22T01:44:13.893Z,4.97
2017-06-22T01:46:41.419Z,5.00
2017-06-22T01:49:09.766Z,5.13
2017-06-22T01:51:37.299Z,5.10
2017-06-22T01:54:04.886Z,4.40
2017-06-22T01:56:32.419Z,4.40
2017-06-22T01:59:00.016Z,4.60
2017-06-22T02:01:27.579Z,5.33
2017-06-22T02:03:55.229Z,4.93
2017-06-22T02:06:22.800Z,4.60
2017-06-22T02:08:50.466Z,5.40
2017-06-22T02:11:17.999Z,4.80
2017-06-22T02:13:45.589Z,5.13
2017-06-22T02:16:13.135Z,4.30
2017-06-22T02:18:40.676Z,5.10
2017-06-22T02:21:08.266Z,4.80
2017-06-22T02:23:35.802Z,5.60
2017-06-22T02:26:03.382Z,5.00
2017-06-22T02:28:30.945Z,4.60
2017-06-22T02:30:58.474Z,5.50
2017-06-22T02:33:26.066Z,8.70
2017-06-22T02:35:53.630Z,7.67
2017-06-22T02:38:21.209Z,6.80
2017-06-22T02:40:48.859Z,5.30
2017-06-22T02:43:16.450Z,5.17
2017-06-22T02:45:44.131Z,5.53
2017-06-22T02:48:12.462Z,5.23
2017-06-22T02:50:40.041Z,6.10
2017-06-22T02:53:07.679Z,5.00
2017-06-22T02:55:35.250Z,4.80
2017-06-22T02:58:02.783Z,5.73
2017-06-22T03:00:30.359Z,5.93
2017-06-22T03:02:57.936Z,5.20
2017-06-22T03:05:25.487Z,5.60
2017-06-22T03:08:04.721Z,5.20
2017-06-22T03:10:32.250Z,6.40
2017-06-22T03:12:59.851Z,6.00
2017-06-22T03:15:27.410Z,6.00
2017-06-22T03:17:54.971Z,6.07
2017-06-22T03:20:22.507Z,5.97
2017-06-22T03:22:50.188Z,6.87
2017-06-22T03:25:17.732Z,6.10
2017-06-22T03:27:45.275Z,5.40
2017-06-22T03:30:12.868Z,6.13
2017-06-22T03:32:40.418Z,6.10
2017-06-22T03:35:07.987Z,6.73
2017-06-22T03:37:39.006Z,6.90
2017-06-22T03:40:06.570Z,7.40
2017-06-22T03:42:34.125Z,6.27
2017-06-22T03:45:01.695Z,7.60
2017-06-22T03:47:29.231Z,6.60
2017-06-22T03:49:57.563Z,6.60
2017-06-22T03:52:25.103Z,7.03
2017-06-22T03:54:52.683Z,6.47
2017-06-22T03:57:20.211Z,6.77
2017-06-22T03:59:47.930Z,7.10
2017-06-22T04:02:15.560Z,7.70
2017-06-22T04:04:43.151Z,6.87
2017-06-22T04:07:10.765Z,7.23
2017-06-22T04:09:38.368Z,6.40
2017-06-22T04:12:06.230Z,6.50
2017-06-22T04:17:28.154Z,7.20
2017-06-22T04:19:55.732Z,7.37
2017-06-22T04:22:23.326Z,7.47
2017-06-22T04:24:50.862Z,7.47
2017-06-22T04:27:18.407Z,7.20
2017-06-22T04:29:45.946Z,6.50
2017-06-22T04:32:13.522Z,7.10
2017-06-22T04:34:41.087Z,6.80
2017-06-22T04:37:08.647Z,7.27
2017-06-22T04:39:36.211Z,6.67
2017-06-22T04:42:03.741Z,6.47
2017-06-22T04:44:31.331Z,6.97
2017-06-22T04:46:58.903Z,7.00
2017-06-22T04:49:26.474Z,7.07
2017-06-22T04:51:54.122Z,7.60
2017-06-22T04:54:21.656Z,6.47
2017-06-22T04:56:49.247Z,7.13
2017-06-22T04:59:16.883Z,7.20
2017-06-22T05:01:44.420Z,7.03
2017-06-22T05:04:12.842Z,6.97
2017-06-22T05:06:40.373Z,7.00
2017-06-22T05:09:08.887Z,6.97
2017-06-22T05:11:36.448Z,7.40
2017-06-22T05:14:04.007Z,6.40
2017-06-22T05:16:31.571Z,7.57
2017-06-22T05:18:59.126Z,6.23
2017-06-22T05:21:26.662Z,7.27
2017-06-22T05:23:54.194Z,6.77
2017-06-22T05:26:22.543Z,6.63
2017-06-22T05:28:50.074Z,6.70
2017-06-22T05:31:17.655Z,7.77
2017-06-22T05:33:45.215Z,6.93
2017-06-22T05:36:12.819Z,7.10
2017-06-22T05:38:41.146Z,6.87
2017-06-22T05:41:08.683Z,6.47
2017-06-22T05:43:36.271Z,6.10
2017-06-22T05:46:03.803Z,6.70
2017-06-22T05:48:31.342Z,8.20
2017-06-22T05:50:59.643Z,6.10
2017-06-22T05:53:27.175Z,6.90
2017-06-22T05:55:55.501Z,7.10
2017-06-22T05:58:23.071Z,5.97
2017-06-22T06:00:50.602Z,7.10
2017-06-22T06:03:18.202Z,6.73
2017-06-22T06:05:45.743Z,6.40
2017-06-22T06:08:13.317Z,7.03
2017-06-22T06:10:40.876Z,6.73
2017-06-22T06:13:08.435Z,5.60
2017-06-22T06:15:50.307Z,7.30
2017-06-22T06:18:17.891Z,6.20
2017-06-22T06:20:45.452Z,5.67
2017-06-22T06:23:13.023Z,6.10
2017-06-22T06:25:40.583Z,5.83
2017-06-22T06:28:08.134Z,7.50
2017-06-22T06:30:36.515Z,6.10
2017-06-22T06:33:04.083Z,5.80
2017-06-22T06:35:31.634Z,6.40
2017-06-22T06:37:59.167Z,5.70
2017-06-22T06:40:26.761Z,6.20
2017-06-22T06:42:54.286Z,5.93
2017-06-22T06:45:21.976Z,6.53
2017-06-22T06:47:49.542Z,5.90
2017-06-22T06:50:17.206Z,6.10
2017-06-22T06:52:44.766Z,6.17
2017-06-22T06:55:12.343Z,5.60
2017-06-22T06:57:39.883Z,5.77
2017-06-22T07:00:07.551Z,6.40
2017-06-22T07:02:35.118Z,6.40
2017-06-22T07:05:02.670Z,6.03
2017-06-22T07:07:30.246Z,6.40
2017-06-22T07:09:57.781Z,5.70
2017-06-22T07:12:25.363Z,6.30
2017-06-22T07:14:52.918Z,5.87
2017-06-22T07:17:20.587Z,5.30
2017-06-22T07:19:48.138Z,6.47
2017-06-22T07:22:15.710Z,6.43
2017-06-22T07:24:43.262Z,6.20
2017-06-22T07:27:10.930Z,5.80
2017-06-22T07:29:38.483Z,5.67
2017-06-22T07:32:06.146Z,7.00
2017-06-22T07:34:33.710Z,6.03
2017-06-22T07:37:01.376Z,6.30
2017-06-22T07:39:28.939Z,5.80
2017-06-22T07:41:56.499Z,6.30
2017-06-22T07:44:24.055Z,5.83
2017-06-22T07:46:51.587Z,6.27
2017-06-22T07:49:19.182Z,5.97
2017-06-22T07:51:46.748Z,5.63
2017-06-22T07:54:14.406Z,6.40
2017-06-22T07:56:41.934Z,6.90
2017-06-22T07:59:09.523Z,6.80
2017-06-22T08:01:37.056Z,6.67
2017-06-22T08:04:04.620Z,6.60
2017-06-22T08:06:32.210Z,6.50
2017-06-22T08:08:59.854Z,6.83
2017-06-22T08:11:27.430Z,5.90
2017-06-22T08:13:55.163Z,6.33
2017-06-22T08:16:22.758Z,6.43
2017-06-22T08:18:50.320Z,6.90
2017-06-22T08:21:17.884Z,5.43
2017-06-22T08:23:45.448Z,6.80
2017-06-22T08:26:13.111Z,6.03
2017-06-22T08:28:40.639Z,6.40
2017-06-22T08:31:08.216Z,6.97
2017-06-22T08:33:35.749Z,6.30
2017-06-22T08:36:03.343Z,6.17
2017-06-22T08:38:30.882Z,5.90
2017-06-22T08:40:58.470Z,5.93
2017-06-22T08:43:26.026Z,6.77
2017-06-22T08:45:53.687Z,6.30
2017-06-22T08:48:21.250Z,6.07
2017-06-22T08:50:48.810Z,6.97
2017-06-22T08:53:16.370Z,7.13
2017-06-22T08:55:43.898Z,6.73
2017-06-22T08:58:11.498Z,6.80
2017-06-22T09:00:39.054Z,7.20
2017-06-22T09:03:06.711Z,7.10
2017-06-22T09:05:34.274Z,6.83
2017-06-22T09:08:01.953Z,6.83
2017-06-22T09:10:29.518Z,6.80
2017-06-22T09:12:57.095Z,7.00
2017-06-22T09:15:24.735Z,6.90
2017-06-22T09:17:52.286Z,7.10
2017-06-22T09:20:19.851Z,6.87
2017-06-22T09:22:47.408Z,7.10
2017-06-22T09:25:15.066Z,6.90
2017-06-22T09:27:42.630Z,7.37
2017-06-22T09:30:10.274Z,6.13
2017-06-22T09:32:37.802Z,7.20
2017-06-22T09:35:05.415Z,6.23
2017-06-22T09:37:32.954Z,7.07
2017-06-22T09:40:00.542Z,6.20
2017-06-22T09:42:28.104Z,7.40
2017-06-22T09:44:55.667Z,6.50
2017-06-22T09:47:23.326Z,6.60
2017-06-22T09:49:50.851Z,6.93
2017-06-22T09:52:18.446Z,7.03
2017-06-22T09:54:46.003Z,7.20
2017-06-22T09:57:13.573Z,7.73
2017-06-22T09:59:41.122Z,6.83
2017-06-22T10:02:08.655Z,6.40
2017-06-22T10:04:36.252Z,7.07
2017-06-22T10:07:03.782Z,6.20
2017-06-22T10:09:31.370Z,6.80
2017-06-22T10:11:58.939Z,7.10
2017-06-22T10:14:26.486Z,7.40
2017-06-22T10:16:54.056Z,6.53
2017-06-22T10:19:21.606Z,7.00
2017-06-22T10:21:49.175Z,6.97
2017-06-22T10:24:16.707Z,6.67
2017-06-22T10:26:44.292Z,7.93
2017-06-22T10:29:11.850Z,7.27
2017-06-22T10:31:39.411Z,7.60
2017-06-22T10:34:06.979Z,8.23
2017-06-22T10:36:34.510Z,7.57
2017-06-22T10:39:02.043Z,7.97
2017-06-22T10:41:30.343Z,7.73
2017-06-22T10:43:57.934Z,8.00
2017-06-22T10:46:25.499Z,7.80
2017-06-22T10:48:53.063Z,8.07
2017-06-22T10:51:20.615Z,8.60
2017-06-22T10:53:48.147Z,8.80
2017-06-22T10:56:15.675Z,8.03
2017-06-22T10:58:43.214Z,7.87
2017-06-22T11:01:10.746Z,7.90
2017-06-22T11:03:38.315Z,8.80
2017-06-22T11:06:05.874Z,8.87
2017-06-22T11:08:33.406Z,8.00
2017-06-22T11:11:00.945Z,8.67
2017-06-22T11:13:28.535Z,8.30
2017-06-22T11:15:56.118Z,8.60
2017-06-22T11:18:23.682Z,9.20
2017-06-22T11:20:51.239Z,8.43
2017-06-22T11:23:18.771Z,8.80
2017-06-22T11:25:46.358Z,8.63
2017-06-22T11:28:13.926Z,8.30
2017-06-22T11:30:41.489Z,8.60
2017-06-22T11:33:09.044Z,8.47
2017-06-22T11:35:36.703Z,8.67
2017-06-22T11:38:04.263Z,8.40
2017-06-22T11:40:31.828Z,9.07
2017-06-22T11:42:59.394Z,8.10
2017-06-22T11:45:26.938Z,8.50
2017-06-22T11:47:54.507Z,5.90
2017-06-22T11:50:22.066Z,5.50
2017-06-22T11:52:49.611Z,5.07
2017-06-22T11:55:17.195Z,5.57
2017-06-22T11:57:44.751Z,4.90
2017-06-22T12:00:12.311Z,4.60
2017-06-22T12:02:39.843Z,4.90
2017-06-22T12:05:09.047Z,5.20
2017-06-22T12:07:36.638Z,4.80
2017-06-22T12:10:04.191Z,4.80
2017-06-22T12:12:31.858Z,4.37
2017-06-22T12:14:59.415Z,4.70
2017-06-22T12:17:26.942Z,3.90
2017-06-22T12:19:54.599Z,4.00
2017-06-22T12:22:22.199Z,3.90
2017-06-22T12:24:49.770Z,3.70
2017-06-22T12:27:17.324Z,4.10
2017-06-22T12:29:44.859Z,4.70
2017-06-22T12:32:12.449Z,4.03
2017-06-22T12:34:40.110Z,4.20
2017-06-22T12:37:07.663Z,4.03
2017-06-22T12:39:35.327Z,4.10
2017-06-22T12:42:02.855Z,3.67
2017-06-22T12:44:30.386Z,3.60
2017-06-22T12:46:58.015Z,3.53
2017-06-22T12:49:25.571Z,3.93
2017-06-22T12:51:53.131Z,3.63
2017-06-22T12:54:20.689Z,4.40
2017-06-22T12:56:48.251Z,3.97
2017-06-22T12:59:15.818Z,4.20
2017-06-22T13:01:43.352Z,3.80
2017-06-22T13:04:10.934Z,4.00
2017-06-22T13:06:38.595Z,3.70
2017-06-22T13:09:06.130Z,4.07
2017-06-22T13:11:33.723Z,4.03
2017-06-22T13:14:01.283Z,4.53
2017-06-22T13:16:28.844Z,4.30
2017-06-22T13:18:56.374Z,4.00
2017-06-22T13:21:23.903Z,4.30
2017-06-22T13:23:52.243Z,4.67
2017-06-22T13:26:19.798Z,4.53
2017-06-22T13:28:47.356Z,4.80
2017-06-22T13:31:14.929Z,4.83
2017-06-22T13:33:42.582Z,4.20
2017-06-22T13:36:10.110Z,4.03
2017-06-22T13:38:37.704Z,4.37
2017-06-22T13:41:05.234Z,5.20
2017-06-22T13:43:32.802Z,5.20
2017-06-22T13:46:00.386Z,5.00
2017-06-22T13:48:27.950Z,4.10
2017-06-22T13:50:55.515Z,4.50
2017-06-22T13:53:23.162Z,4.27
2017-06-22T13:55:50.733Z,4.33
2017-06-22T13:58:18.266Z,4.53
2017-06-22T14:00:45.858Z,4.63
2017-06-22T14:03:13.423Z,5.07
2017-06-22T14:05:41.074Z,4.70
2017-06-22T14:08:08.606Z,4.10
2017-06-22T14:10:36.204Z,4.63
2017-06-22T14:13:03.757Z,4.80
2017-06-22T14:15:31.418Z,4.50
2017-06-22T14:17:58.987Z,5.17
2017-06-22T14:20:26.652Z,4.50
2017-06-22T14:22:54.208Z,5.33
2017-06-22T14:25:21.767Z,5.40
2017-06-22T14:27:49.301Z,5.10
2017-06-22T14:30:16.886Z,6.20
2017-06-22T14:32:44.461Z,5.13
2017-06-22T14:35:12.006Z,5.53
2017-06-22T14:37:39.583Z,5.20
2017-06-22T14:40:07.137Z,5.57
2017-06-22T14:42:34.802Z,5.10
2017-06-22T14:45:02.359Z,5.53
2017-06-22T14:47:30.016Z,5.20
2017-06-22T14:49:57.587Z,5.13
2017-06-22T14:52:25.147Z,5.33
2017-06-22T14:54:52.702Z,6.27
2017-06-22T14:57:20.367Z,5.50
2017-06-22T14:59:47.931Z,5.60
2017-06-22T15:02:15.582Z,5.77
2017-06-22T15:04:43.146Z,6.00
2017-06-22T15:07:10.806Z,6.20
2017-06-22T15:15:26.122Z,6.77
2017-06-22T15:17:53.695Z,6.20
2017-06-22T15:20:21.222Z,6.00
2017-06-22T15:22:48.814Z,5.83
2017-06-22T15:25:16.375Z,6.73
2017-06-22T15:27:43.919Z,5.87
2017-06-22T15:30:11.487Z,6.10
2017-06-22T15:32:39.047Z,6.67
2017-06-22T15:35:06.614Z,6.83
2017-06-22T15:37:34.175Z,6.50
2017-06-22T15:40:01.741Z,6.90
2017-06-22T15:42:29.307Z,6.53
2017-06-22T15:44:56.851Z,7.03
2017-06-22T15:47:24.419Z,6.87
2017-06-22T15:49:52.075Z,7.07
2017-06-22T15:52:19.642Z,7.20
2017-06-22T15:54:47.300Z,6.80
2017-06-22T15:57:14.834Z,7.27
2017-06-22T15:59:42.422Z,7.10
2017-06-22T16:02:09.986Z,7.10
2017-06-22T16:04:37.538Z,6.10
2017-06-22T16:07:05.107Z,6.97
2017-06-22T16:09:32.639Z,6.57
2017-06-22T16:12:00.223Z,6.67
2017-06-22T16:14:27.790Z,6.60
2017-06-22T16:16:55.348Z,6.53
2017-06-22T16:19:22.911Z,6.47
2017-06-22T16:21:50.467Z,6.43
2017-06-22T16:24:18.030Z,6.37
2017-06-22T16:26:45.583Z,6.97
2017-06-22T16:29:13.147Z,6.50
2017-06-22T16:31:40.814Z,7.10
2017-06-22T16:34:08.379Z,6.50
2017-06-22T16:36:35.935Z,6.53
2017-06-22T16:39:03.500Z,6.60
2017-06-22T16:41:31.064Z,7.30
2017-06-22T16:43:58.624Z,6.53
2017-06-22T16:46:26.179Z,6.40
2017-06-22T16:48:53.711Z,7.20
2017-06-22T16:51:21.295Z,7.80
2017-06-22T16:53:48.826Z,7.00
2017-06-22T16:56:16.415Z,7.03
2017-06-22T16:58:43.954Z,7.17
2017-06-22T17:01:11.542Z,7.30
2017-06-22T17:03:39.102Z,7.33
2017-06-22T17:06:06.658Z,6.93
2017-06-22T17:08:34.223Z,7.60
2017-06-22T17:11:01.783Z,7.83
2017-06-22T17:13:29.314Z,7.00
2017-06-22T17:15:56.907Z,7.77
2017-06-22T17:18:24.557Z,7.87
2017-06-22T17:20:52.122Z,7.30
2017-06-22T17:23:19.651Z,7.17
2017-06-22T17:25:47.247Z,8.30
2017-06-22T17:28:14.815Z,7.33
2017-06-22T17:30:42.355Z,7.40
2017-06-22T17:33:09.931Z,7.67
2017-06-22T17:35:37.491Z,7.40
2017-06-22T17:38:05.026Z,8.00
2017-06-22T17:40:32.624Z,8.40
2017-06-22T17:43:00.156Z,8.67
2017-06-22T17:45:27.733Z,7.83
2017-06-22T17:47:55.294Z,7.83
2017-06-22T17:50:22.858Z,7.90
2017-06-22T17:52:50.391Z,7.27
2017-06-22T17:55:17.951Z,7.83
2017-06-22T17:57:45.534Z,7.57
2017-06-22T18:00:13.103Z,7.50
2017-06-22T18:02:40.662Z,7.67
2017-06-22T18:05:08.222Z,8.20
2017-06-22T18:07:35.755Z,8.43
2017-06-22T18:10:03.283Z,8.07
2017-06-22T18:12:31.614Z,8.50
2017-06-22T18:14:59.182Z,8.13
2017-06-22T18:17:26.847Z,8.40
2017-06-22T18:19:54.403Z,8.13
2017-06-22T18:22:22.063Z,8.60
2017-06-22T18:24:49.631Z,10.10
2017-06-22T18:27:17.286Z,10.00
2017-06-22T18:29:44.858Z,11.70
2017-06-22T18:32:12.399Z,10.53
2017-06-22T18:34:39.979Z,12.03
2017-06-22T18:39:58.246Z,11.47
2017-06-22T18:42:26.003Z,11.20
2017-06-22T18:44:59.280Z,13.03
2017-06-22T18:47:27.892Z,11.97
2017-06-22T18:49:55.483Z,15.20
2017-06-22T18:52:23.118Z,16.07
2017-06-22T18:54:50.842Z,18.33
2017-06-22T18:57:18.402Z,15.93
2017-06-22T18:59:50.082Z,16.43
2017-06-22T19:05:08.270Z,14.17
2017-06-22T19:07:35.814Z,12.40
2017-06-22T19:10:03.369Z,13.40
2017-06-22T19:12:30.907Z,13.23
2017-06-22T19:14:58.490Z,12.63
2017-06-22T19:17:26.050Z,11.73
2017-06-22T19:19:53.719Z,12.00
2017-06-22T19:22:21.270Z,12.60
2017-06-22T19:24:49.338Z,13.13
2017-06-22T19:27:17.009Z,13.30
2017-06-22T19:29:44.570Z,12.90
2017-06-22T19:32:12.130Z,13.47
2017-06-22T19:34:39.702Z,12.70
2017-06-22T19:37:07.234Z,12.30
2017-06-22T19:39:34.821Z,13.37
2017-06-22T19:42:02.489Z,12.90
2017-06-22T19:44:30.035Z,12.57
2017-06-22T19:46:57.598Z,13.30
2017-06-22T19:49:25.162Z,15.53
2017-06-22T19:51:52.705Z,14.50
2017-06-22T19:54:20.288Z,13.80
2017-06-22T19:56:47.848Z,13.67
2017-06-22T19:59:15.407Z,13.57
2017-06-22T20:01:42.962Z,15.10
2017-06-22T20:04:10.525Z,13.57
2017-06-22T20:06:38.094Z,13.50
2017-06-22T20:09:05.742Z,13.60
2017-06-22T20:11:33.282Z,13.47
2017-06-22T20:14:00.863Z,14.00
2017-06-22T20:16:28.430Z,14.37
2017-06-22T20:18:55.989Z,14.03
2017-06-22T20:21:23.533Z,12.43
2017-06-22T20:23:51.095Z,13.83
2017-06-22T20:26:18.650Z,15.47
2017-06-22T20:28:46.234Z,14.83
2017-06-22T20:31:13.794Z,16.47
2017-06-22T20:33:41.350Z,13.57
2017-06-22T20:36:08.910Z,15.20
2017-06-22T20:38:36.482Z,14.00
2017-06-22T20:41:04.061Z,15.33
2017-06-22T20:43:31.604Z,16.40
2017-06-22T20:45:59.151Z,14.20
2017-06-22T20:48:26.685Z,14.73
2017-06-22T20:50:54.288Z,13.83
2017-06-22T20:53:21.845Z,13.40
2017-06-22T20:55:49.410Z,14.60
2017-06-22T20:58:16.970Z,13.50
2017-06-22T21:00:44.531Z,15.27
2017-06-22T21:03:12.106Z,13.90
2017-06-22T21:05:39.751Z,13.10
2017-06-22T21:08:07.410Z,15.07
2017-06-22T21:10:34.942Z,14.17
2017-06-22T21:13:02.534Z,14.60
2017-06-22T21:15:30.083Z,13.70
2017-06-22T21:17:57.661Z,13.93
2017-06-22T21:20:25.206Z,14.07
2017-06-22T21:22:52.746Z,13.27
2017-06-22T21:25:20.343Z,14.20
2017-06-22T21:27:47.898Z,13.77
2017-06-22T21:30:15.466Z,13.53
2017-06-22T21:32:42.998Z,14.27
2017-06-22T21:35:10.586Z,13.93
2017-06-22T21:37:38.142Z,13.23
2017-06-22T21:40:05.706Z,14.43
2017-06-22T21:42:33.266Z,12.83
2017-06-22T21:45:00.930Z,12.83
2017-06-22T21:47:28.490Z,12.70
2017-06-22T21:49:56.034Z,12.13
2017-06-22T21:52:23.619Z,12.60
2017-06-22T21:54:51.166Z,12.07
2017-06-22T21:57:18.707Z,12.80
2017-06-22T21:59:46.297Z,11.93
2017-06-22T22:02:13.850Z,12.10
2017-06-22T22:04:41.411Z,11.63
2017-06-22T22:07:08.983Z,13.30
2017-06-22T22:09:36.515Z,13.87
2017-06-22T22:12:04.090Z,12.30
2017-06-22T22:14:31.650Z,11.90
2017-06-22T22:16:59.209Z,12.37
2017-06-22T22:19:26.780Z,12.43
2017-06-22T22:21:54.343Z,12.77
2017-06-22T22:24:21.886Z,13.00
2017-06-22T22:26:49.462Z,12.83
2017-06-22T22:29:17.030Z,12.57
2017-06-22T22:31:44.574Z,13.80
2017-06-22T22:34:12.238Z,14.77
2017-06-22T22:36:39.778Z,15.43
2017-06-22T22:39:07.348Z,17.33
2017-06-22T22:41:34.881Z,18.93
2017-06-22T22:44:03.212Z,16.77
2017-06-22T22:46:30.759Z,18.57
2017-06-22T22:48:58.428Z,18.97
2017-06-22T22:51:25.988Z,20.20
2017-06-22T22:53:53.653Z,19.40
2017-06-22T22:56:21.210Z,20.10
2017-06-22T22:58:48.775Z,18.63
2017-06-22T23:01:16.341Z,18.83
2017-06-22T23:03:43.877Z,20.17
2017-06-22T23:06:11.435Z,19.50
2017-06-22T23:08:39.018Z,21.07
2017-06-22T23:11:06.573Z,18.90
2017-06-22T23:13:34.111Z,20.40
2017-06-22T23:16:01.706Z,20.70
2017-06-22T23:18:29.255Z,19.47
2017-06-22T23:20:56.819Z,19.10
2017-06-22T23:23:24.386Z,20.50
2017-06-22T23:25:52.037Z,19.43
2017-06-22T23:28:19.610Z,18.80
2017-06-22T23:30:47.178Z,19.30
2017-06-22T23:33:14.828Z,20.70
2017-06-22T23:35:42.365Z,19.83
2017-06-22T23:38:09.950Z,21.40
2017-06-22T23:40:37.482Z,20.30
2017-06-22T23:43:05.078Z,21.27
2017-06-22T23:45:32.610Z,21.70
2017-06-22T23:48:00.194Z,20.73
2017-06-22T23:50:27.726Z,20.20
2017-06-22T23:52:55.310Z,22.37
2017-06-22T23:55:22.874Z,20.20
2017-06-22T23:57:50.437Z,20.57
